Time;durP1;ratioP1;P1;durP2;ratioP2;P2;SDS_P1;SDS_P2;PMS_P1;PMS_P2;Temp;Humidity;BMP_temperature;BMP_pressure;BME280_temperature;BME280_humidity;BME280_pressure;Samples;Min_cycle;Max_cycle;Signal;HPM_P1;HPM_P2
2023/09/05 00:01:27;;;;;;;;;;;;;;;23.53;62.20;100434.25;7311803;19;130610;-36
2023/09/05 00:03:53;;;;;;;63.67;4.70;;;;;;;23.50;59.58;100433.69;7308456;19;131238;-39
2023/09/05 00:06:19;;;;;;;28.83;2.57;;;;;;;23.50;60.07;100434.53;7311708;19;129213;-40
2023/09/05 00:08:44;;;;;;;45.57;4.10;;;;;;;23.50;59.04;100431.91;7309432;19;129150;-39
2023/09/05 00:11:09;;;;;;;41.35;3.67;;;;;;;23.48;59.97;100425.09;7308625;19;130548;-40
2023/09/05 00:13:35;;;;;;;78.78;5.57;;;;;;;23.50;60.69;100428.44;7308755;19;129769;-41
2023/09/05 00:16:00;;;;;;;33.63;2.97;;;;;;;23.47;60.18;100429.50;7309419;19;130408;-37
2023/09/05 00:18:26;;;;;;;47.87;3.93;;;;;;;23.38;60.20;100414.56;7307760;19;129702;-37
2023/09/05 00:20:55;;;;;;;60.80;4.80;;;;;;;23.51;59.64;100436.16;7307984;19;130206;-39
2023/09/05 00:23:23;;;;;;;57.60;4.50;;;;;;;23.51;60.53;100430.09;7310827;19;131415;-37
2023/09/05 00:25:48;;;;;;;36.53;3.38;;;;;;;23.52;59.36;100435.19;7309534;19;131499;-39
2023/09/05 00:28:13;;;;;;;21.20;2.20;;;;;;;23.51;59.69;100430.91;7308346;19;129202;-39
2023/09/05 00:30:39;;;;;;;59.30;4.83;;;;;;;23.52;59.27;100426.50;7310261;19;130248;-40
2023/09/05 00:33:04;;;;;;;68.27;5.17;;;;;;;23.54;59.63;100427.19;7310097;19;130067;-40
2023/09/05 00:35:29;;;;;;;32.63;2.90;;;;;;;23.53;60.24;100417.66;7312238;19;129211;-36
2023/09/05 00:37:55;;;;;;;23.53;2.40;;;;;;;23.52;60.18;100427.31;7310482;19;129313;-40
2023/09/05 00:40:20;;;;;;;38.37;3.17;;;;;;;23.53;60.36;100418.50;7309665;19;130572;-42
2023/09/05 00:42:46;;;;;;;40.37;3.27;;;;;;;23.52;59.98;100421.25;7310967;19;130400;-41
2023/09/05 00:45:11;;;;;;;75.70;5.90;;;;;;;23.53;59.61;100417.66;7310140;19;130145;-37
2023/09/05 00:47:38;;;;;;;44.87;3.70;;;;;;;23.40;59.57;100394.28;7307845;19;129387;-39
2023/09/05 00:50:06;;;;;;;59.00;4.60;;;;;;;23.52;59.88;100416.81;7310765;19;129752;-39
2023/09/05 00:52:33;;;;;;;36.55;3.15;;;;;;;23.52;61.22;100421.25;7311822;19;131275;-42
2023/09/05 00:54:58;;;;;;;29.77;2.75;;;;;;;23.51;59.45;100414.31;7312174;19;130660;-38
2023/09/05 00:57:25;;;;;;;40.53;3.57;;;;;;;23.52;59.61;100411.56;7309517;19;129189;-41
2023/09/05 00:59:50;;;;;;;59.88;4.13;;;;;;;23.49;60.59;100417.09;7306431;19;130193;-42
2023/09/05 01:02:16;;;;;;;73.50;6.00;;;;;;;23.50;60.04;100416.16;7308246;19;129710;-36
2023/09/05 01:04:43;;;;;;;32.93;3.17;;;;;;;23.50;59.78;100417.94;7308331;19;128888;-42
2023/09/05 01:07:08;;;;;;;;;;;;;;;23.53;62.59;100415.88;7308884;19;130184;-39
2023/09/05 01:09:51;;;;;;;92.77;6.87;;;;;;;23.51;61.42;100415.16;7307122;19;130208;-43
2023/09/05 01:12:17;;;;;;;75.60;5.43;;;;;;;23.52;59.92;100416.81;7308342;19;129825;-41
2023/09/05 01:14:42;;;;;;;50.20;4.25;;;;;;;23.51;60.24;100412.53;7309268;19;129203;-41
2023/09/05 01:17:07;;;;;;;80.30;6.83;;;;;;;23.44;59.76;100403.53;7308477;19;130611;-40
2023/09/05 01:19:38;;;;;;;58.38;4.85;;;;;;;23.50;60.25;100413.53;7307275;19;130826;-38
2023/09/05 01:22:13;;;;;;;62.15;4.30;;;;;;;23.51;61.92;100404.69;7305054;19;130519;-42
2023/09/05 01:24:39;;;;;;;41.42;3.45;;;;;;;23.52;60.95;100401.06;7309349;19;129013;-38
2023/09/05 01:27:06;;;;;;;108.43;8.60;;;;;;;23.51;60.14;100404.69;7304156;19;128922;-40
2023/09/05 01:29:38;;;;;;;29.13;2.80;;;;;;;23.51;59.57;100402.06;7308433;19;130558;-41
2023/09/05 01:32:09;;;;;;;113.47;8.05;;;;;;;23.52;59.98;100400.25;7305958;19;131037;-40
2023/09/05 01:34:34;;;;;;;80.35;4.90;;;;;;;23.52;59.50;100401.06;7306722;19;129322;-37
2023/09/05 01:37:00;;;;;;;73.93;5.07;;;;;;;23.51;60.27;100396.78;7308749;19;130808;-42
2023/09/05 01:39:25;;;;;;;23.93;2.13;;;;;;;23.49;60.05;100390.84;7305284;19;129358;-41
2023/09/05 01:41:51;;;;;;;42.10;2.87;;;;;;;23.50;59.33;100392.53;7306113;19;129815;-39
2023/09/05 01:44:17;;;;;;;89.83;5.90;;;;;;;23.46;60.26;100380.63;7308157;19;129648;-41
2023/09/05 01:46:43;;;;;;;39.90;2.97;;;;;;;23.47;59.58;100387.50;7310520;19;129836;-39
2023/09/05 01:49:09;;;;;;;56.17;4.25;;;;;;;23.46;59.46;100392.91;7306375;19;131105;-41
2023/09/05 01:51:34;;;;;;;54.85;3.78;;;;;;;23.44;59.36;100387.78;7309423;19;129511;-37
2023/09/05 01:53:59;;;;;;;48.57;3.47;;;;;;;23.45;59.11;100378.97;7310552;19;128911;-39
2023/09/05 01:56:25;;;;;;;39.00;2.83;;;;;;;23.45;59.23;100380.75;7308336;19;129848;-39
2023/09/05 01:58:50;;;;;;;29.83;2.43;;;;;;;23.43;59.80;100387.91;7307451;19;129610;-40
2023/09/05 02:01:16;;;;;;;76.30;5.03;;;;;;;23.43;60.05;100380.88;7306969;19;130057;-39
2023/09/05 02:03:41;;;;;;;57.63;4.07;;;;;;;23.42;59.81;100384.47;7311301;19;129593;-39
2023/09/05 02:06:07;;;;;;;22.93;2.17;;;;;;;23.41;59.58;100380.19;7309984;19;129547;-41
2023/09/05 02:08:34;;;;;;;78.57;5.17;;;;;;;23.41;59.57;100382.81;7304719;19;129627;-39
2023/09/05 02:11:00;;;;;;;69.28;4.65;;;;;;;23.25;60.49;100359.63;7308678;19;130413;-38
2023/09/05 02:13:25;;;;;;;42.27;3.37;;;;;;;23.38;60.16;100385.69;7309416;19;129400;-38
2023/09/05 02:15:51;;;;;;;32.42;2.47;;;;;;;23.38;60.28;100383.06;7305645;19;128904;-41
2023/09/05 02:18:16;;;;;;;76.80;5.23;;;;;;;23.39;60.14;100378.66;7303197;19;130130;-39
2023/09/05 02:20:42;;;;;;;110.77;7.07;;;;;;;23.40;60.04;100375.06;7305036;19;131117;-40
2023/09/05 02:23:08;;;;;;;28.27;2.50;;;;;;;23.34;60.70;100365.91;7311041;19;129270;-39
2023/09/05 02:25:33;;;;;;;40.13;2.97;;;;;;;23.38;60.10;100372.56;7307904;19;128979;-36
2023/09/05 02:27:59;;;;;;;33.53;2.77;;;;;;;23.39;59.77;100374.22;7308226;19;129454;-41
2023/09/05 02:30:25;;;;;;;75.47;4.70;;;;;;;23.36;60.14;100374.50;7306225;19;130452;-38
2023/09/05 02:32:54;;;;;;;54.53;3.85;;;;;;;23.37;61.00;100370.91;7309526;19;129916;-40
2023/09/05 02:35:27;;;;;;;31.65;2.60;;;;;;;23.38;60.58;100372.56;7309373;19;129065;-40
2023/09/05 02:37:54;;;;;;;58.63;4.30;;;;;;;23.27;59.59;100349.03;7305861;19;129767;-37
2023/09/05 02:40:20;;;;;;;81.57;5.10;;;;;;;23.38;59.82;100371.75;7308020;19;130149;-41
2023/09/05 02:42:45;;;;;;;36.93;2.83;;;;;;;23.38;59.29;100367.31;7309559;19;131000;-37
2023/09/05 02:45:12;;;;;;;33.53;2.70;;;;;;;23.39;60.47;100368.16;7306853;19;129172;-36
2023/09/05 02:47:38;;;;;;;41.47;3.17;;;;;;;23.41;59.14;100368.84;7306887;19;130674;-40
2023/09/05 02:50:04;;;;;;;81.37;5.17;;;;;;;23.38;59.62;100367.31;7304934;19;130647;-40
2023/09/05 02:52:30;;;;;;;17.97;1.97;;;;;;;23.39;59.63;100363.72;7308769;19;129165;-37
2023/09/05 02:54:55;;;;;;;27.60;2.40;;;;;;;23.40;59.89;100360.16;7308234;19;129120;-37
2023/09/05 02:57:21;;;;;;;80.00;5.80;;;;;;;23.40;59.88;100359.31;7306034;19;130752;-38
2023/09/05 02:59:47;;;;;;;76.03;5.00;;;;;;;23.38;59.83;100363.88;7304192;19;129858;-36
2023/09/05 03:02:12;;;;;;;44.87;3.33;;;;;;;23.38;59.17;100364.72;7304945;19;129779;-39
2023/09/05 03:04:38;;;;;;;31.03;2.70;;;;;;;23.38;59.82;100367.31;7306556;19;129596;-41
2023/09/05 03:07:03;;;;;;;37.90;3.13;;;;;;;23.27;60.35;100343.78;7306030;19;129265;-41
2023/09/05 03:09:29;;;;;;;58.13;3.83;;;;;;;23.38;60.39;100367.31;7303382;19;129998;-40
2023/09/05 03:11:55;;;;;;;29.03;2.43;;;;;;;23.37;60.57;100367.47;7307306;19;129180;-41
2023/09/05 03:14:20;;;;;;;83.47;5.47;;;;;;;23.37;60.84;100370.09;7306681;19;129468;-41
2023/09/05 03:16:45;;;;;;;40.60;3.33;;;;;;;23.38;60.25;100366.50;7305970;19;130194;-38
2023/09/05 03:19:11;;;;;;;98.63;6.27;;;;;;;23.35;59.78;100364.97;7302816;19;129595;-37
2023/09/05 03:21:37;;;;;;;48.47;3.70;;;;;;;23.37;59.95;100373.53;7305710;19;128997;-38
2023/09/05 03:24:03;;;;;;;26.37;2.57;;;;;;;23.40;59.37;100375.91;7308696;19;129113;-41
2023/09/05 03:26:29;;;;;;;85.80;5.77;;;;;;;23.38;59.71;100363.88;7306220;19;130953;-41
2023/09/05 03:28:54;;;;;;;42.33;3.20;;;;;;;23.39;60.01;100363.72;7312670;19;129709;-40
2023/09/05 03:31:19;;;;;;;25.47;2.30;;;;;;;23.39;59.50;100358.47;7313664;19;129483;-40
2023/09/05 03:33:45;;;;;;;43.53;3.35;;;;;;;23.39;59.99;100355.84;7314175;19;129876;-41
2023/09/05 03:36:11;;;;;;;58.03;3.83;;;;;;;23.39;60.09;100357.69;7313934;19;131412;-41
2023/09/05 03:38:36;;;;;;;66.30;4.50;;;;;;;23.37;60.37;100355.16;7309683;19;130068;-40
2023/09/05 03:41:02;;;;;;;29.87;2.43;;;;;;;23.38;60.23;100361.25;7311993;19;129645;-40
2023/09/05 03:43:27;;;;;;;25.02;2.33;;;;;;;23.39;59.82;100352.44;7314529;19;130114;-42
2023/09/05 03:45:53;;;;;;;63.63;4.13;;;;;;;23.38;59.84;100350.75;7313742;19;129508;-40
2023/09/05 03:48:18;;;;;;;41.30;3.23;;;;;;;23.25;60.23;100329.97;7313041;19;130088;-40
2023/09/05 03:50:44;;;;;;;52.70;3.90;;;;;;;23.37;60.53;100352.53;7309957;19;129086;-42
2023/09/05 03:53:09;;;;;;;23.77;2.40;;;;;;;23.38;60.31;100351.59;7313832;19;129999;-42
2023/09/05 03:55:34;;;;;;;72.10;4.73;;;;;;;23.34;59.33;100350.19;7311987;19;129234;-40
2023/09/05 03:58:00;;;;;;;31.90;2.47;;;;;;;23.37;59.65;100349.91;7310811;19;130772;-40
2023/09/05 04:00:26;;;;;;;49.15;3.58;;;;;;;23.39;59.19;100342.75;7308917;19;129996;-39
2023/09/05 04:02:51;;;;;;;74.77;5.27;;;;;;;23.39;59.58;100348.00;7311747;19;129266;-40
2023/09/05 04:05:17;;;;;;;148.83;9.37;;;;;;;23.38;60.39;100348.97;7309783;19;129571;-39
2023/09/05 04:07:42;;;;;;;74.07;5.13;;;;;;;23.39;60.22;100344.56;7310740;19;129380;-40
2023/09/05 04:10:08;;;;;;;41.30;3.00;;;;;;;23.40;59.41;100333.91;7312336;19;129298;-37
2023/09/05 04:12:33;;;;;;;55.27;3.80;;;;;;;23.39;59.89;100334.88;7307482;19;129942;-38
2023/09/05 04:14:59;;;;;;;91.20;6.13;;;;;;;23.25;59.83;100315.03;7306819;19;129150;-38
2023/09/05 04:17:24;;;;;;;111.13;7.33;;;;;;;23.36;60.26;100329.88;7309907;19;129962;-39
2023/09/05 04:19:54;;;;;;;69.53;4.80;;;;;;;23.27;59.68;100320.16;7305654;19;129353;-40
2023/09/05 04:22:21;;;;;;;65.13;3.95;;;;;;;23.26;60.53;100310.63;7308679;19;129321;-39
2023/09/05 04:24:51;;;;;;;87.72;5.80;;;;;;;23.34;61.12;100331.81;7305931;19;130034;-40
2023/09/05 04:27:16;;;;;;;42.00;3.20;;;;;;;23.25;59.75;100314.22;7309488;19;130346;-36
2023/09/05 04:29:41;;;;;;;78.47;5.43;;;;;;;23.36;59.84;100327.25;7308174;19;128955;-41
2023/09/05 04:32:07;;;;;;;63.70;4.27;;;;;;;23.38;59.98;100332.38;7304528;19;130044;-35
2023/09/05 04:34:34;;;;;;;43.67;3.27;;;;;;;23.38;59.74;100335.84;7309213;19;130195;-40
2023/09/05 04:37:00;;;;;;;64.80;4.63;;;;;;;23.38;59.77;100330.59;7308506;19;130378;-37
2023/09/05 04:39:25;;;;;;;224.00;14.43;;;;;;;23.38;59.77;100335.84;7303876;19;130021;-39
2023/09/05 04:41:51;;;;;;;72.90;4.57;;;;;;;23.27;59.50;100312.31;7305232;19;129547;-40
2023/09/05 04:44:16;;;;;;;64.47;4.03;;;;;;;23.38;59.64;100330.59;7308669;19;129597;-39
2023/09/05 04:46:45;;;;;;;40.20;3.10;;;;;;;23.38;59.77;100329.75;7309867;19;129457;-38
2023/09/05 04:49:11;;;;;;;59.90;4.55;;;;;;;23.38;59.58;100325.34;7307335;19;129420;-41
2023/09/05 04:51:36;;;;;;;78.93;5.20;;;;;;;23.39;59.11;100332.25;7300611;19;129014;-41
2023/09/05 04:54:01;;;;;;;50.50;3.70;;;;;;;23.39;60.29;100324.38;7309508;19;130325;-40
2023/09/05 04:56:27;;;;;;;81.07;5.40;;;;;;;23.39;59.50;100327.00;7305613;19;132271;-40
2023/09/05 04:58:52;;;;;;;75.77;5.33;;;;;;;23.39;59.59;100313.88;7307809;19;131088;-39
2023/09/05 05:01:18;;;;;;;109.43;6.60;;;;;;;23.31;59.79;100308.47;7300329;19;129564;-41
2023/09/05 05:03:43;;;;;;;53.67;4.03;;;;;;;23.38;59.95;100314.84;7309451;19;130785;-39
2023/09/05 05:06:08;;;;;;;41.53;3.13;;;;;;;23.38;59.62;100320.09;7309694;19;129618;-39
2023/09/05 05:08:34;;;;;;;58.67;4.37;;;;;;;23.38;59.98;100319.25;7305897;19;131044;-40
2023/09/05 05:11:04;;;;;;;64.23;3.97;;;;;;;23.25;60.83;100298.47;7303751;19;129822;-40
2023/09/05 05:13:29;;;;;;;114.75;7.55;;;;;;;23.38;60.26;100316.63;7307380;19;130258;-38
2023/09/05 05:15:54;;;;;;;74.20;5.57;;;;;;;23.37;59.90;100326.28;7305942;19;129488;-41
2023/09/05 05:18:20;;;;;;;62.40;4.43;;;;;;;23.25;59.57;100306.34;7306500;19;130047;-40
2023/09/05 05:20:46;;;;;;;100.43;6.50;;;;;;;23.37;60.37;100328.91;7306361;19;129161;-37
2023/09/05 05:23:11;;;;;;;33.70;2.63;;;;;;;23.38;59.86;100329.75;7308639;19;129370;-41
2023/09/05 05:25:37;;;;;;;41.20;3.17;;;;;;;23.39;59.32;100328.81;7298865;19;131891;-40
2023/09/05 05:28:03;;;;;;;38.63;3.00;;;;;;;23.39;59.88;100327.00;7305756;19;129320;-41
2023/09/05 05:30:28;;;;;;;106.00;7.07;;;;;;;23.40;59.73;100328.66;7295307;19;129748;-39
2023/09/05 05:32:54;;;;;;;56.70;4.40;;;;;;;23.38;59.24;100327.97;7308458;19;131999;-41
2023/09/05 05:35:19;;;;;;;54.00;3.83;;;;;;;23.39;59.85;100326.19;7301915;19;130196;-41
2023/09/05 05:37:44;;;;;;;88.77;6.00;;;;;;;23.37;60.09;100321.03;7304939;19;129566;-37
2023/09/05 05:40:11;;;;;;;60.93;4.07;;;;;;;23.41;58.91;100327.69;7305714;19;130019;-38
2023/09/05 05:42:37;;;;;;;59.05;4.05;;;;;;;23.40;59.59;100333.91;7306537;19;129415;-40
2023/09/05 05:45:03;;;;;;;33.42;2.75;;;;;;;23.40;59.18;100338.31;7303205;19;130544;-37
2023/09/05 05:47:31;;;;;;;46.80;3.37;;;;;;;23.38;60.18;100338.47;7307687;19;129139;-41
2023/09/05 05:49:57;;;;;;;214.82;13.05;;;;;;;23.38;60.19;100335.84;7301873;19;133748;-35
2023/09/05 05:52:23;;;;;;;52.73;4.03;;;;;;;23.39;59.21;100337.50;7304538;19;130402;-40
2023/09/05 05:54:48;;;;;;;56.27;4.17;;;;;;;23.40;60.01;100339.16;7304881;19;129368;-39
2023/09/05 05:57:14;;;;;;;81.67;5.37;;;;;;;23.40;59.67;100333.09;7300225;19;129907;-40
2023/09/05 05:59:40;;;;;;;93.03;6.23;;;;;;;23.40;59.95;100339.16;7302698;19;129231;-39
2023/09/05 06:02:05;;;;;;;19.60;2.20;;;;;;;23.39;59.93;100332.25;7297034;19;131282;-35
2023/09/05 06:04:30;;;;;;;48.53;3.87;;;;;;;23.40;60.01;100333.09;7305127;19;129559;-38
2023/09/05 06:06:56;;;;;;;123.00;7.90;;;;;;;23.40;60.09;100331.28;7297837;19;132416;-37
2023/09/05 06:09:21;;;;;;;54.23;3.93;;;;;;;23.38;59.67;100335.00;7300869;19;130265;-41
2023/09/05 06:11:47;;;;;;;78.37;5.53;;;;;;;23.40;59.83;100335.69;7297687;19;130386;-35
2023/09/05 06:14:16;;;;;;;30.40;2.60;;;;;;;23.39;59.63;100337.50;7305331;19;130604;-40
2023/09/05 06:16:44;;;;;;;135.82;8.07;;;;;;;23.39;59.65;100342.75;7297261;19;129702;-39
2023/09/05 06:19:10;;;;;;;63.72;4.40;;;;;;;23.39;59.77;100337.50;7304300;19;129436;-39
2023/09/05 06:21:35;;;;;;;29.83;2.63;;;;;;;23.40;59.65;100336.53;7296854;19;129652;-40
2023/09/05 06:24:01;;;;;;;46.47;3.50;;;;;;;23.41;60.01;100338.19;7303724;19;129675;-37
2023/09/05 06:26:26;;;;;;;141.47;8.80;;;;;;;23.39;59.84;100334.06;7298669;19;129091;-41
2023/09/05 06:28:53;;;;;;;56.37;4.77;;;;;;;23.39;60.33;100332.25;7304272;19;129111;-40
2023/09/05 06:31:19;;;;;;;;;;;;;;;23.43;62.32;100341.53;7301667;19;130748;-40
2023/09/05 06:33:44;;;;;;;51.88;3.88;;;;;;;23.40;59.82;100339.16;7301903;19;130117;-41
2023/09/05 06:36:11;;;;;;;58.27;3.87;;;;;;;23.40;60.00;100339.16;7305974;19;129317;-37
2023/09/05 06:38:36;;;;;;;56.90;4.13;;;;;;;23.38;60.36;100335.84;7299554;19;130210;-37
2023/09/05 06:41:05;;;;;;;58.53;4.33;;;;;;;23.40;60.38;100328.66;7302140;19;130055;-40
2023/09/05 06:43:31;;;;;;;108.18;7.20;;;;;;;23.40;59.66;100331.28;7297028;19;129507;-39
2023/09/05 06:46:06;;;;;;;105.63;6.80;;;;;;;23.40;61.37;100333.91;7302562;19;129521;-39
2023/09/05 06:48:33;;;;;;;119.53;7.80;;;;;;;23.40;59.43;100339.16;7303288;19;130465;-40
2023/09/05 06:50:58;;;;;;;48.47;3.80;;;;;;;23.39;58.98;100332.25;7305431;19;130164;-41
2023/09/05 06:53:25;;;;;;;47.97;3.63;;;;;;;23.40;59.37;100333.09;7306049;19;129583;-39
2023/09/05 06:55:51;;;;;;;80.53;5.03;;;;;;;23.39;59.73;100342.75;7299356;19;130097;-40
2023/09/05 06:58:18;;;;;;;85.35;5.32;;;;;;;23.41;59.44;100339.97;7303010;19;130314;-39
2023/09/05 07:00:43;;;;;;;17.77;1.80;;;;;;;23.25;59.78;100314.22;7306230;19;129334;-40
2023/09/05 07:03:08;;;;;;;67.50;5.00;;;;;;;23.37;60.85;100333.34;7308066;19;131501;-40
2023/09/05 07:05:38;;;;;;;89.10;5.43;;;;;;;23.37;61.91;100342.03;7303792;19;130447;-42
2023/09/05 07:08:04;;;;;;;120.93;8.02;;;;;;;23.37;59.68;100339.41;7305657;19;129954;-39
2023/09/05 07:10:29;;;;;;;74.37;4.77;;;;;;;23.38;60.54;100348.13;7307245;19;129350;-38
2023/09/05 07:12:55;;;;;;;53.77;4.00;;;;;;;23.40;60.25;100351.44;7306933;19;130481;-41
2023/09/05 07:15:20;;;;;;;82.47;5.27;;;;;;;23.38;60.29;100346.34;7311976;19;129242;-36
2023/09/05 07:17:45;;;;;;;44.50;3.30;;;;;;;23.38;59.95;100341.09;7313124;19;129222;-40
2023/09/05 07:20:11;;;;;;;32.28;2.92;;;;;;;23.37;60.05;100342.03;7308783;19;130816;-37
2023/09/05 07:22:37;;;;;;;50.95;3.78;;;;;;;23.39;59.66;100352.44;7309308;19;129371;-37
2023/09/05 07:25:02;;;;;;;109.70;6.83;;;;;;;23.36;59.34;100347.41;7306942;19;129920;-40
2023/09/05 07:27:28;;;;;;;99.53;6.57;;;;;;;23.38;59.87;100348.97;7312465;19;129192;-36
2023/09/05 07:29:54;;;;;;;40.67;3.53;;;;;;;23.39;59.87;100357.69;7304876;19;129451;-40
2023/09/05 07:32:19;;;;;;;25.97;2.67;;;;;;;23.39;60.00;100353.22;7312213;19;130453;-40
2023/09/05 07:34:44;;;;;;;80.80;5.22;;;;;;;23.38;60.12;100356.84;7302609;19;129387;-40
2023/09/05 07:37:10;;;;;;;77.43;5.37;;;;;;;23.38;59.61;100351.59;7308235;19;130153;-40
2023/09/05 07:39:35;;;;;;;98.53;6.40;;;;;;;23.39;60.30;100358.47;7303676;19;130264;-40
2023/09/05 07:42:01;;;;;;;81.30;5.53;;;;;;;23.38;59.79;100356.84;7306557;19;131188;-37
2023/09/05 07:44:26;;;;;;;102.67;6.47;;;;;;;23.28;59.71;100334.97;7306940;19;129936;-40
2023/09/05 07:46:52;;;;;;;58.00;4.13;;;;;;;23.40;59.49;100354.06;7303591;19;129203;-40
2023/09/05 07:49:18;;;;;;;50.77;3.70;;;;;;;23.39;60.20;100352.44;7307622;19;131212;-41
2023/09/05 07:51:43;;;;;;;88.75;6.03;;;;;;;23.37;60.09;100349.91;7310464;19;129110;-42
2023/09/05 07:54:14;;;;;;;46.20;3.00;;;;;;;23.38;60.27;100356.00;7310467;19;130099;-37
2023/09/05 07:56:40;;;;;;;55.15;4.03;;;;;;;23.37;60.17;100357.78;7309894;19;130578;-41
2023/09/05 07:59:05;;;;;;;101.50;6.93;;;;;;;23.27;59.25;100333.28;7306231;19;129533;-39
2023/09/05 08:01:31;;;;;;;82.43;5.50;;;;;;;23.39;59.59;100363.72;7303632;19;131226;-40
2023/09/05 08:03:57;;;;;;;86.60;6.00;;;;;;;23.38;59.48;100356.84;7308455;19;130896;-40
2023/09/05 08:06:22;;;;;;;88.20;5.97;;;;;;;23.40;59.64;100356.69;7305122;19;130858;-40
2023/09/05 08:08:47;;;;;;;55.67;4.10;;;;;;;23.39;60.34;100353.22;7305342;19;129894;-41
2023/09/05 08:11:13;;;;;;;252.17;15.73;;;;;;;23.37;60.10;100355.16;7300866;19;130415;-39
2023/09/05 08:13:38;;;;;;;34.40;2.70;;;;;;;23.37;60.07;100355.16;7306415;19;130295;-37
2023/09/05 08:16:04;;;;;;;60.15;4.22;;;;;;;23.37;60.24;100351.72;7308740;19;129428;-36
2023/09/05 08:18:30;;;;;;;63.10;4.63;;;;;;;23.38;59.78;100356.84;7307727;19;130257;-41
2023/09/05 08:20:59;;;;;;;85.80;5.57;;;;;;;23.40;59.90;100354.91;7308950;19;129575;-40
2023/09/05 08:23:24;;;;;;;72.80;4.93;;;;;;;23.38;59.24;100361.25;7309115;19;129239;-40
2023/09/05 08:25:51;;;;;;;40.03;2.97;;;;;;;23.38;59.69;100362.09;7309378;19;129165;-38
2023/09/05 08:28:16;;;;;;;;;;;;;;;23.39;62.60;100362.91;7308445;19;130993;-39
2023/09/05 08:30:42;;;;;;;82.28;5.38;;;;;;;23.39;59.43;100363.72;7307389;19;130040;-41
2023/09/05 08:33:07;;;;;;;59.23;4.23;;;;;;;23.40;59.96;100361.94;7310641;19;129229;-39
2023/09/05 08:35:32;;;;;;;50.43;3.77;;;;;;;23.36;59.92;100353.50;7309942;19;130043;-40
2023/09/05 08:38:02;;;;;;;71.83;5.20;;;;;;;23.26;60.03;100339.47;7305564;19;129029;-39
2023/09/05 08:40:28;;;;;;;62.13;4.00;;;;;;;23.38;59.68;100362.09;7307348;19;130646;-40
2023/09/05 08:42:53;;;;;;;32.67;2.80;;;;;;;23.40;59.62;100364.56;7305771;19;130425;-40
2023/09/05 08:45:23;;;;;;;83.65;5.72;;;;;;;23.38;60.29;100364.72;7308991;19;129539;-40
2023/09/05 08:47:49;;;;;;;41.45;2.80;;;;;;;23.39;59.13;100363.72;7309123;19;130970;-38
2023/09/05 08:50:15;;;;;;;89.80;5.50;;;;;;;23.37;59.46;100363.03;7302052;19;129790;-40
2023/09/05 08:52:42;;;;;;;28.10;2.43;;;;;;;23.37;60.07;100362.22;7308876;19;129337;-36
2023/09/05 08:55:08;;;;;;;210.27;13.85;;;;;;;23.38;59.16;100366.50;7304813;19;129579;-42
2023/09/05 08:57:36;;;;;;;33.28;2.67;;;;;;;23.38;60.51;100366.50;7310915;19;130264;-38
2023/09/05 09:00:04;;;;;;;88.95;5.80;;;;;;;23.33;59.57;100363.44;7309832;19;129322;-41
2023/09/05 09:02:30;;;;;;;216.77;13.88;;;;;;;23.31;58.34;100367.97;7302655;19;131226;-41
2023/09/05 09:04:56;;;;;;;41.40;3.35;;;;;;;23.33;57.98;100364.28;7311765;19;129699;-40
2023/09/05 09:07:29;;;;;;;38.77;2.80;;;;;;;23.33;58.72;100364.28;7311508;19;129747;-37
2023/09/05 09:09:55;;;;;;;47.40;3.25;;;;;;;23.23;57.69;100363.38;7307010;19;130433;-41
2023/09/05 09:12:26;;;;;;;;;;;;;;;23.13;60.32;100355.47;7301867;19;129410;-40
2023/09/05 09:14:52;;;;;;;28.80;2.67;;;;;;;23.24;57.34;100367.63;7311033;19;129673;-39
2023/09/05 09:17:18;;;;;;;52.60;4.13;;;;;;;23.17;55.62;100369.16;7305640;19;130409;-37
2023/09/05 09:19:44;;;;;;;49.00;3.50;;;;;;;23.20;54.56;100358.38;7308287;19;129403;-39
2023/09/05 09:22:09;;;;;;;118.90;7.67;;;;;;;23.12;54.33;100355.59;7308228;19;129595;-40
2023/09/05 09:24:37;;;;;;;36.92;3.25;;;;;;;23.21;54.53;100360.03;7307838;19;129453;-40
2023/09/05 09:27:04;;;;;;;73.18;5.68;;;;;;;23.14;53.76;100364.13;7309811;19;129488;-37
2023/09/05 09:29:31;;;;;;;61.03;4.13;;;;;;;23.16;53.60;100356.97;7307580;19;129165;-41
2023/09/05 09:32:03;;;;;;;41.55;2.95;;;;;;;23.25;55.31;100361.44;7307250;19;128955;-36
2023/09/05 09:34:29;;;;;;;27.05;2.72;;;;;;;23.31;55.14;100366.19;7310874;19;129801;-41
2023/09/05 09:36:55;;;;;;;41.45;3.20;;;;;;;23.27;55.95;100358.72;7306661;19;130862;-42
2023/09/05 09:39:20;;;;;;;52.27;4.40;;;;;;;23.25;54.86;100356.19;7307426;19;130998;-40
2023/09/05 09:41:47;;;;;;;64.05;4.82;;;;;;;23.25;55.98;100361.44;7306562;19;129002;-41
2023/09/05 09:44:28;;;;;;;67.75;4.68;;;;;;;23.23;55.57;100360.75;7311369;19;131440;-37
2023/09/05 09:46:54;;;;;;;11.00;2.00;;;;;;;23.25;54.85;100357.00;7304408;19;129575;-39
2023/09/05 09:49:21;;;;;;;;;;;;;;;23.29;57.63;100352.38;7307794;19;129878;-42
2023/09/05 09:52:02;;;;;;;50.15;3.60;;;;;;;23.27;55.12;100353.47;7310840;19;129030;-39
2023/09/05 09:54:37;;;;;;;53.92;4.05;;;;;;;23.32;56.32;100352.09;7311220;19;129064;-40
2023/09/05 09:57:04;;;;;;;94.05;6.55;;;;;;;23.34;54.57;100341.50;7307116;19;129707;-38
2023/09/05 09:59:35;;;;;;;39.78;3.25;;;;;;;23.37;55.37;100344.66;7309099;19;129578;-40
2023/09/05 10:02:07;;;;;;;30.55;2.85;;;;;;;23.35;54.67;100337.91;7308149;19;128960;-40
2023/09/05 10:04:34;;;;;;;23.35;2.53;;;;;;;23.26;55.38;100329.00;7310963;19;129748;-41
2023/09/05 10:07:00;;;;;;;77.82;5.28;;;;;;;23.37;55.24;100331.53;7308623;19;129647;-40
2023/09/05 10:09:30;;;;;;;29.97;2.83;;;;;;;23.33;54.95;100330.16;7308929;19;130391;-37
2023/09/05 10:12:00;;;;;;;29.60;3.05;;;;;;;23.34;55.52;100326.56;7310596;19;128952;-40
2023/09/05 10:14:27;;;;;;;40.70;3.45;;;;;;;23.37;54.24;100328.91;7311033;19;129270;-37
2023/09/05 10:16:53;;;;;;;53.22;4.05;;;;;;;23.34;55.19;100329.19;7310452;19;129576;-42
2023/09/05 10:19:21;;;;;;;60.78;4.00;;;;;;;23.27;54.15;100317.56;7307298;19;129339;-38
2023/09/05 10:21:48;;;;;;;32.67;3.05;;;;;;;23.19;53.67;100314.72;7309633;19;129152;-41
2023/09/05 10:24:15;;;;;;;;;;;;;;;23.21;54.17;100331.19;7309955;19;129450;-38
2023/09/05 10:26:41;;;;;;;48.90;3.87;;;;;;;23.16;52.67;100309.75;7309499;19;130936;-38
2023/09/05 10:29:43;;;;;;;57.13;4.10;;;;;;;23.29;52.42;100304.31;7308554;19;129697;-37
2023/09/05 10:32:10;;;;;;;84.18;5.68;;;;;;;23.29;52.43;100299.88;7311306;19;129703;-40
2023/09/05 10:34:47;;;;;;;70.55;5.32;;;;;;;23.36;54.57;100298.41;7308691;19;129209;-39
2023/09/05 10:37:19;;;;;;;;;;;;;;;23.45;56.42;100300.22;7309027;19;129534;-41
2023/09/05 10:39:46;;;;;;;39.95;3.08;;;;;;;23.50;54.04;100286.69;7306167;19;132484;-39
2023/09/05 10:42:11;;;;;;;;;;;;;;;23.53;56.32;100283.78;7308542;19;132145;-42
2023/09/05 10:44:46;;;;;;;74.85;5.10;;;;;;;23.59;54.55;100280.63;7309749;19;129502;-41
2023/09/05 10:47:29;;;;;;;79.38;5.53;;;;;;;23.59;55.76;100278.00;7311407;19;131125;-40
2023/09/05 10:50:03;;;;;;;45.83;3.67;;;;;;;23.61;55.15;100287.41;7308937;19;130326;-41
2023/09/05 10:52:32;;;;;;;18.67;2.25;;;;;;;23.60;54.22;100282.31;7311806;19;128837;-40
2023/09/05 10:54:59;;;;;;;41.05;3.42;;;;;;;23.57;54.31;100286.00;7309030;19;130205;-37
2023/09/05 10:57:38;;;;;;;79.68;5.35;;;;;;;23.58;56.46;100278.97;7307856;19;130188;-39
2023/09/05 11:00:28;;;;;;;76.40;5.40;;;;;;;23.57;57.07;100277.31;7309454;19;131125;-41
2023/09/05 11:03:09;;;;;;;61.92;4.13;;;;;;;23.61;54.62;100268.19;7308105;19;129945;-41
2023/09/05 11:05:35;;;;;;;249.80;14.80;;;;;;;23.63;54.23;100280.25;7305144;19;130304;-40
2023/09/05 11:08:01;;;;;;;48.90;3.70;;;;;;;23.59;53.84;100276.22;7304207;19;131184;-42
2023/09/05 11:10:39;;;;;;;66.63;4.93;;;;;;;23.59;55.84;100276.22;7306744;19;131203;-40